createdAt,value
2022-12-23T00:00:52.749Z,4.53
2022-12-23T00:01:54.617Z,4.60
2022-12-23T00:02:56.691Z,4.30
2022-12-23T00:03:59.589Z,4.25
2022-12-23T00:05:01.509Z,4.63
2022-12-23T00:06:12.513Z,4.60
2022-12-23T00:07:14.262Z,4.68
2022-12-23T00:08:16.647Z,4.65
2022-12-23T00:09:18.431Z,4.37
2022-12-23T00:10:20.246Z,4.10
2022-12-23T00:11:22.009Z,4.07
2022-12-23T00:12:42.496Z,3.42
2022-12-23T00:14:03.549Z,4.07
2022-12-23T00:15:05.837Z,3.67
2022-12-23T00:16:10.734Z,4.15
2022-12-23T00:17:21.959Z,3.80
2022-12-23T00:18:24.577Z,4.03
2022-12-23T00:19:26.452Z,3.43
2022-12-23T00:20:28.235Z,2.70
2022-12-23T00:21:30.025Z,2.15
2022-12-23T00:22:50.649Z,1.80
2022-12-23T00:23:52.697Z,2.00
2022-12-23T00:24:54.388Z,1.77
2022-12-23T00:25:56.188Z,1.77
2022-12-23T00:26:57.922Z,1.20
2022-12-23T00:28:02.361Z,1.70
2022-12-23T00:29:04.118Z,1.00
2022-12-23T00:30:07.981Z,0.97
2022-12-23T00:31:10.516Z,0.87
2022-12-23T00:32:12.307Z,0.93
2022-12-23T00:33:15.762Z,0.98
2022-12-23T00:34:17.517Z,1.00
2022-12-23T00:35:19.691Z,0.75
2022-12-23T00:36:27.874Z,0.90
2022-12-23T00:37:32.706Z,1.45
2022-12-23T00:38:53.226Z,0.80
2022-12-23T00:40:13.770Z,1.05
2022-12-23T00:41:36.075Z,1.27
2022-12-23T00:42:56.215Z,2.17
2022-12-23T00:43:58.267Z,2.25
2022-12-23T00:45:15.714Z,2.53
2022-12-23T00:46:17.947Z,3.13
2022-12-23T00:47:49.533Z,3.58
2022-12-23T00:49:09.607Z,3.10
2022-12-23T00:50:11.560Z,3.20
2022-12-23T00:51:13.527Z,3.10
2022-12-23T00:52:15.955Z,3.60
2022-12-23T00:53:17.768Z,4.30
2022-12-23T00:54:20.351Z,4.43
2022-12-23T00:55:22.238Z,4.68
2022-12-23T00:56:23.961Z,4.80
2022-12-23T00:57:25.724Z,5.15
2022-12-23T00:58:27.633Z,5.13
2022-12-23T00:59:29.425Z,4.93
2022-12-23T01:00:49.914Z,4.28
2022-12-23T01:02:10.572Z,4.22
2022-12-23T01:03:32.820Z,3.88
2022-12-23T01:04:54.146Z,4.20
2022-12-23T01:05:59.566Z,3.50
2022-12-23T01:07:02.346Z,3.90
2022-12-23T01:08:13.157Z,3.80
2022-12-23T01:09:15.335Z,3.10
2022-12-23T01:10:17.136Z,2.47
2022-12-23T01:11:18.924Z,2.38
2022-12-23T01:12:20.738Z,2.83
2022-12-23T01:13:22.534Z,3.17
2022-12-23T01:14:24.752Z,2.53
2022-12-23T01:15:26.565Z,2.37
2022-12-23T01:16:28.361Z,1.90
2022-12-23T01:17:30.364Z,1.83
2022-12-23T01:18:33.330Z,1.55
2022-12-23T01:19:35.195Z,1.50
2022-12-23T01:20:40.902Z,1.48
2022-12-23T01:21:42.723Z,1.73
2022-12-23T01:22:44.576Z,1.42
2022-12-23T01:23:46.287Z,1.50
2022-12-23T01:24:48.014Z,1.30
2022-12-23T01:25:57.433Z,1.30
2022-12-23T01:26:59.730Z,1.13
2022-12-23T01:28:01.503Z,1.48
2022-12-23T01:29:03.539Z,0.93
2022-12-23T01:30:06.074Z,1.15
2022-12-23T01:31:10.392Z,0.77
2022-12-23T01:32:12.201Z,1.80
2022-12-23T01:33:13.961Z,0.70
2022-12-23T01:34:15.800Z,0.80
2022-12-23T01:35:17.610Z,1.38
2022-12-23T01:36:19.983Z,0.90
2022-12-23T01:37:21.733Z,0.87
2022-12-23T01:38:23.438Z,1.05
2022-12-23T01:39:25.178Z,0.90
2022-12-23T01:40:26.924Z,0.80
2022-12-23T01:41:51.944Z,0.85
2022-12-23T01:42:53.666Z,1.25
2022-12-23T01:43:55.385Z,0.80
2022-12-23T01:45:02.801Z,1.15
2022-12-23T01:46:04.708Z,1.10
2022-12-23T01:47:10.118Z,1.10
2022-12-23T01:48:24.506Z,1.37
2022-12-23T01:49:26.232Z,1.33
2022-12-23T01:50:39.306Z,1.17
2022-12-23T01:51:41.133Z,1.40
2022-12-23T01:53:07.224Z,1.52
2022-12-23T01:54:09.681Z,0.90
2022-12-23T01:55:13.085Z,1.50
2022-12-23T01:56:23.996Z,1.35
2022-12-23T01:57:26.280Z,1.20
2022-12-23T01:58:34.238Z,0.70
2022-12-23T02:00:14.553Z,0.50
2022-12-23T02:01:35.330Z,0.70
2022-12-23T02:02:56.687Z,1.20
2022-12-23T02:04:04.035Z,1.38
2022-12-23T02:05:06.070Z,1.05
2022-12-23T02:06:47.987Z,0.88
2022-12-23T02:08:10.490Z,0.50
2022-12-23T02:09:17.755Z,0.77
2022-12-23T02:10:20.682Z,1.23
2022-12-23T02:11:43.661Z,1.83
2022-12-23T02:13:08.615Z,1.37
2022-12-23T02:15:04.376Z,0.93
2022-12-23T02:16:18.919Z,0.68
2022-12-23T02:17:42.450Z,1.17
2022-12-23T02:18:50.085Z,1.15
2022-12-23T02:20:10.568Z,0.80
2022-12-23T02:21:28.756Z,1.35
2022-12-23T02:23:03.624Z,0.90
2022-12-23T02:24:27.081Z,0.93
2022-12-23T02:25:53.622Z,1.55
2022-12-23T02:27:10.170Z,2.43
2022-12-23T02:28:41.485Z,1.50
2022-12-23T02:29:49.489Z,1.08
2022-12-23T02:31:23.952Z,0.60
2022-12-23T02:32:51.409Z,0.75
2022-12-23T02:34:25.706Z,0.75
2022-12-23T02:35:46.547Z,0.85
2022-12-23T02:37:23.046Z,0.75
2022-12-23T02:38:43.699Z,0.70
2022-12-23T02:40:20.910Z,0.65
2022-12-23T02:41:43.118Z,1.10
2022-12-23T02:42:51.541Z,0.82
2022-12-23T02:44:17.220Z,0.85
2022-12-23T02:45:47.913Z,0.60
2022-12-23T02:47:08.894Z,0.60
2022-12-23T02:48:31.689Z,1.58
2022-12-23T02:49:40.915Z,0.93
2022-12-23T02:50:45.219Z,0.77
2022-12-23T02:51:50.958Z,0.40
2022-12-23T02:52:56.311Z,1.20
2022-12-23T02:54:02.710Z,0.50
2022-12-23T02:55:12.088Z,0.60
2022-12-23T02:56:17.072Z,0.45
2022-12-23T02:57:24.863Z,1.23
2022-12-23T02:58:33.882Z,1.20
2022-12-23T02:59:41.651Z,1.02
2022-12-23T03:00:45.485Z,0.60
2022-12-23T03:01:49.057Z,0.47
2022-12-23T03:02:50.965Z,0.57
2022-12-23T03:03:53.083Z,0.70
2022-12-23T03:04:54.865Z,0.80
2022-12-23T03:05:56.828Z,0.73
2022-12-23T03:07:07.427Z,0.63
2022-12-23T03:08:30.307Z,0.63
2022-12-23T03:10:02.881Z,0.77
2022-12-23T03:11:09.739Z,0.52
2022-12-23T03:12:25.168Z,0.60
2022-12-23T03:13:38.166Z,0.60
2022-12-23T03:14:53.517Z,0.30
2022-12-23T03:16:16.693Z,0.80
2022-12-23T03:17:25.941Z,0.30
2022-12-23T03:18:46.640Z,0.40
2022-12-23T03:19:59.964Z,0.30
2022-12-23T03:21:20.157Z,0.55
2022-12-23T03:22:56.711Z,0.50
2022-12-23T03:24:19.738Z,0.60
2022-12-23T03:25:33.866Z,0.50
2022-12-23T03:26:47.987Z,0.57
2022-12-23T03:28:18.311Z,0.70
2022-12-23T03:29:27.136Z,0.40
2022-12-23T03:30:31.358Z,0.30
2022-12-23T03:31:34.290Z,0.52
2022-12-23T03:32:46.807Z,0.22
2022-12-23T03:33:53.769Z,0.40
2022-12-23T03:34:59.707Z,0.20
2022-12-23T03:36:12.055Z,0.20
2022-12-23T03:37:15.787Z,0.77
2022-12-23T03:38:19.119Z,0.30
2022-12-23T03:39:26.034Z,0.55
2022-12-23T03:40:34.017Z,0.57
2022-12-23T03:41:41.252Z,0.80
2022-12-23T03:42:47.698Z,0.30
2022-12-23T03:44:02.036Z,0.30
2022-12-23T03:45:37.632Z,0.10
2022-12-23T03:47:03.203Z,0.50
2022-12-23T03:48:32.372Z,0.30
2022-12-23T03:49:40.169Z,0.47
2022-12-23T03:50:44.239Z,0.40
2022-12-23T03:51:52.505Z,0.63
2022-12-23T03:53:06.251Z,0.30
2022-12-23T03:54:15.680Z,0.30
2022-12-23T03:55:23.417Z,0.65
2022-12-23T03:56:35.992Z,0.20
2022-12-23T03:57:52.753Z,0.45
2022-12-23T03:59:00.871Z,0.20
2022-12-23T04:00:02.746Z,0.20
2022-12-23T04:01:11.380Z,0.40
2022-12-23T04:02:23.572Z,0.30
2022-12-23T04:03:48.545Z,0.30
2022-12-23T04:04:53.124Z,0.30
2022-12-23T04:05:59.768Z,0.30
2022-12-23T04:07:31.734Z,0.28
2022-12-23T04:08:37.206Z,0.30
2022-12-23T04:09:39.592Z,0.77
2022-12-23T04:10:41.572Z,0.30
2022-12-23T04:11:43.622Z,0.32
2022-12-23T04:12:45.412Z,0.57
2022-12-23T04:13:48.602Z,0.30
2022-12-23T04:14:51.497Z,0.10
2022-12-23T04:15:53.572Z,0.10
2022-12-23T04:16:58.415Z,0.10
2022-12-23T04:18:00.213Z,0.22
2022-12-23T04:19:01.997Z,0.40
2022-12-23T04:20:04.652Z,0.70
2022-12-23T04:21:06.471Z,0.20
2022-12-23T04:22:08.215Z,0.30
2022-12-23T04:23:10.210Z,0.20
2022-12-23T04:24:11.937Z,0.63
2022-12-23T04:25:15.688Z,0.30
2022-12-23T04:26:17.418Z,0.17
2022-12-23T04:27:19.207Z,0.30
2022-12-23T04:28:20.951Z,0.30
2022-12-23T04:29:22.708Z,0.20
2022-12-23T04:30:28.079Z,0.20
2022-12-23T04:31:35.267Z,0.10
2022-12-23T04:32:37.244Z,0.20
2022-12-23T04:33:39.065Z,0.30
2022-12-23T04:34:40.806Z,0.20
2022-12-23T04:35:42.590Z,0.20
2022-12-23T04:36:44.351Z,0.70
2022-12-23T04:37:46.064Z,0.37
2022-12-23T04:38:47.822Z,0.10
2022-12-23T04:39:49.562Z,0.10
2022-12-23T04:40:51.292Z,0.20
2022-12-23T04:41:53.058Z,0.30
2022-12-23T04:42:54.841Z,0.35
2022-12-23T04:43:56.593Z,0.40
2022-12-23T04:44:58.523Z,0.50
2022-12-23T04:46:00.268Z,0.20
2022-12-23T04:47:02.044Z,0.20
2022-12-23T04:48:03.999Z,0.40
2022-12-23T04:49:05.772Z,0.30
2022-12-23T04:50:08.255Z,0.40
2022-12-23T04:51:09.979Z,0.30
2022-12-23T04:52:11.938Z,0.30
2022-12-23T04:53:13.705Z,0.20
2022-12-23T04:54:15.581Z,0.20
2022-12-23T04:55:17.583Z,0.30
2022-12-23T04:56:19.353Z,0.10
2022-12-23T04:57:21.096Z,0.17
2022-12-23T04:58:24.980Z,0.27
2022-12-23T04:59:26.751Z,0.35
2022-12-23T05:00:29.839Z,0.10
2022-12-23T05:01:34.619Z,0.50
2022-12-23T05:02:36.531Z,0.15
2022-12-23T05:03:39.508Z,0.10
2022-12-23T05:04:41.534Z,0.20
2022-12-23T05:05:44.351Z,0.15
2022-12-23T05:06:46.113Z,0.40
2022-12-23T05:07:50.464Z,0.30
2022-12-23T05:08:52.298Z,0.10
2022-12-23T05:09:54.034Z,0.20
2022-12-23T05:10:56.401Z,0.50
2022-12-23T05:11:58.212Z,0.30
2022-12-23T05:12:59.979Z,0.40
2022-12-23T05:14:01.744Z,0.20
2022-12-23T05:15:03.617Z,0.50
2022-12-23T05:16:05.887Z,0.10
2022-12-23T05:17:08.166Z,0.20
2022-12-23T05:18:10.055Z,0.40
2022-12-23T05:19:12.099Z,0.10
2022-12-23T05:20:13.935Z,0.32
2022-12-23T05:21:15.998Z,0.30
2022-12-23T05:22:17.791Z,0.35
2022-12-23T05:23:19.551Z,0.32
2022-12-23T05:24:21.313Z,0.47
2022-12-23T05:25:23.050Z,0.20
2022-12-23T05:26:24.914Z,0.10
2022-12-23T05:27:26.635Z,0.13
2022-12-23T05:28:28.399Z,0.20
2022-12-23T05:29:30.173Z,0.20
2022-12-23T05:30:32.106Z,0.30
2022-12-23T05:31:33.998Z,0.20
2022-12-23T05:32:36.347Z,0.20
2022-12-23T05:33:38.886Z,0.20
2022-12-23T05:34:40.661Z,0.30
2022-12-23T05:35:42.459Z,0.40
2022-12-23T05:36:44.204Z,0.10
2022-12-23T05:37:45.939Z,0.10
2022-12-23T05:38:48.426Z,0.20
2022-12-23T05:39:50.219Z,0.10
2022-12-23T05:40:52.790Z,0.30
2022-12-23T05:41:54.516Z,0.20
2022-12-23T05:42:56.268Z,0.20
2022-12-23T05:43:58.019Z,0.10
2022-12-23T05:44:59.803Z,0.32
2022-12-23T05:46:01.644Z,0.10
2022-12-23T05:47:03.455Z,0.10
2022-12-23T05:48:05.426Z,0.10
2022-12-23T05:49:07.197Z,0.10
2022-12-23T05:50:09.506Z,0.20
2022-12-23T05:51:11.289Z,0.22
2022-12-23T05:52:13.060Z,0.20
2022-12-23T05:53:14.811Z,0.22
2022-12-23T05:54:16.560Z,0.17
2022-12-23T05:55:18.426Z,0.20
2022-12-23T05:56:20.160Z,0.20
2022-12-23T05:57:22.103Z,0.15
2022-12-23T05:58:24.279Z,0.22
2022-12-23T05:59:30.684Z,0.17
2022-12-23T06:00:33.701Z,0.27
2022-12-23T06:01:35.523Z,1.05
2022-12-23T06:02:37.414Z,0.10
2022-12-23T06:03:39.438Z,0.10
2022-12-23T06:04:41.330Z,0.28
2022-12-23T06:05:44.037Z,0.20
2022-12-23T06:06:45.733Z,0.10
2022-12-23T06:07:47.479Z,0.10
2022-12-23T06:08:52.036Z,0.20
2022-12-23T06:09:57.604Z,0.10
2022-12-23T06:10:59.958Z,0.20
2022-12-23T06:12:01.782Z,0.17
2022-12-23T06:13:03.662Z,0.10
2022-12-23T06:14:07.258Z,0.10
2022-12-23T06:15:09.711Z,0.10
2022-12-23T06:16:11.577Z,0.10
2022-12-23T06:17:13.446Z,0.20
2022-12-23T06:18:15.217Z,0.20
2022-12-23T06:19:17.109Z,0.10
2022-12-23T06:20:20.992Z,0.20
2022-12-23T06:21:22.950Z,0.10
2022-12-23T06:22:24.749Z,0.10
2022-12-23T06:23:26.502Z,0.32
2022-12-23T06:24:28.246Z,0.10
2022-12-23T06:25:30.029Z,0.20
2022-12-23T06:26:31.907Z,0.10
2022-12-23T06:27:33.633Z,0.10
2022-12-23T06:28:35.409Z,0.15
2022-12-23T06:29:37.155Z,0.20
2022-12-23T06:30:38.912Z,0.30
2022-12-23T06:31:40.764Z,0.13
2022-12-23T06:32:42.599Z,0.10
2022-12-23T06:33:44.414Z,0.10
2022-12-23T06:34:46.716Z,0.20
2022-12-23T06:35:48.553Z,0.20
2022-12-23T06:36:50.427Z,0.10
2022-12-23T06:37:55.428Z,0.10
2022-12-23T06:38:57.183Z,0.00
2022-12-23T06:39:58.931Z,0.15
2022-12-23T06:41:00.890Z,0.10
2022-12-23T06:42:02.641Z,0.00
2022-12-23T06:43:04.519Z,0.10
2022-12-23T06:44:06.318Z,0.10
2022-12-23T06:45:08.750Z,0.10
2022-12-23T06:46:10.712Z,0.20
2022-12-23T06:47:12.559Z,0.52
2022-12-23T06:48:14.732Z,0.10
2022-12-23T06:49:16.475Z,0.30
2022-12-23T06:50:18.263Z,0.10
2022-12-23T06:51:20.027Z,0.17
2022-12-23T06:52:23.089Z,0.20
2022-12-23T06:53:24.935Z,0.20
2022-12-23T06:54:26.688Z,0.17
2022-12-23T06:55:28.471Z,0.10
2022-12-23T06:56:30.270Z,0.40
2022-12-23T06:57:32.072Z,0.10
2022-12-23T06:58:33.926Z,0.20
2022-12-23T06:59:35.661Z,0.10
2022-12-23T07:00:37.462Z,0.20
2022-12-23T07:01:40.616Z,0.10
2022-12-23T07:02:42.619Z,0.10
2022-12-23T07:03:44.750Z,0.32
2022-12-23T07:04:46.570Z,0.10
2022-12-23T07:05:49.187Z,0.15
2022-12-23T07:06:50.957Z,0.32
2022-12-23T07:07:52.804Z,0.28
2022-12-23T07:08:54.555Z,0.10
2022-12-23T07:09:56.297Z,0.10
2022-12-23T07:11:03.430Z,0.08
2022-12-23T07:12:05.510Z,0.10
2022-12-23T07:13:07.652Z,0.10
2022-12-23T07:14:09.527Z,0.10
2022-12-23T07:15:11.479Z,0.10
2022-12-23T07:16:13.488Z,0.25
2022-12-23T07:17:15.312Z,0.20
2022-12-23T07:18:17.080Z,0.00
2022-12-23T07:19:18.801Z,0.20
2022-12-23T07:20:20.552Z,0.20
2022-12-23T07:21:29.038Z,0.10
2022-12-23T07:22:31.762Z,0.20
2022-12-23T07:23:33.563Z,0.20
2022-12-23T07:24:35.277Z,0.10
2022-12-23T07:25:37.021Z,0.30
2022-12-23T07:26:38.724Z,0.10
2022-12-23T07:27:40.479Z,0.17
2022-12-23T07:28:46.736Z,0.10
2022-12-23T07:29:48.467Z,0.20
2022-12-23T07:30:50.296Z,0.20
2022-12-23T07:31:53.118Z,0.17
2022-12-23T07:32:54.939Z,0.17
2022-12-23T07:33:56.685Z,0.20
2022-12-23T07:34:58.510Z,0.10
2022-12-23T07:36:00.286Z,0.20
2022-12-23T07:37:02.133Z,0.20
2022-12-23T07:38:04.147Z,0.43
2022-12-23T07:39:06.051Z,0.20
2022-12-23T07:40:09.211Z,0.10
2022-12-23T07:41:10.982Z,0.30
2022-12-23T07:43:34.746Z,0.10
2022-12-23T07:44:36.452Z,0.20
2022-12-23T07:45:38.452Z,0.15
2022-12-23T07:46:40.427Z,0.10
2022-12-23T07:47:42.749Z,0.10
2022-12-23T07:48:44.515Z,0.10
2022-12-23T07:49:46.249Z,0.10
2022-12-23T07:50:48.067Z,0.20
2022-12-23T07:51:50.008Z,0.30
2022-12-23T07:52:52.763Z,0.10
2022-12-23T07:53:55.591Z,0.20
2022-12-23T07:54:57.438Z,0.13
2022-12-23T07:55:59.262Z,0.20
2022-12-23T07:57:00.999Z,0.20
2022-12-23T07:58:02.890Z,0.10
2022-12-23T07:59:04.831Z,0.20
2022-12-23T08:00:09.376Z,0.13
2022-12-23T08:01:11.186Z,0.10
2022-12-23T08:02:13.204Z,0.30
2022-12-23T08:03:15.255Z,0.10
2022-12-23T08:04:17.329Z,0.10
2022-12-23T08:05:19.430Z,0.13
2022-12-23T08:06:21.337Z,0.10
2022-12-23T08:07:23.250Z,0.10
2022-12-23T08:08:24.979Z,0.30
2022-12-23T08:09:26.727Z,0.10
2022-12-23T08:10:30.157Z,0.17
2022-12-23T08:11:31.985Z,0.30
2022-12-23T08:12:33.829Z,0.20
2022-12-23T08:13:38.899Z,0.20
2022-12-23T08:14:40.647Z,0.20
2022-12-23T08:15:42.417Z,0.10
2022-12-23T08:16:44.624Z,0.10
2022-12-23T08:17:46.578Z,0.22
2022-12-23T08:18:48.353Z,0.20
2022-12-23T08:19:50.152Z,0.10
2022-12-23T08:21:00.451Z,0.10
2022-12-23T08:22:02.272Z,0.10
2022-12-23T08:23:04.048Z,0.03
2022-12-23T08:24:06.083Z,0.10
2022-12-23T08:25:08.259Z,0.20
2022-12-23T08:26:13.049Z,0.10
2022-12-23T08:27:16.276Z,0.20
2022-12-23T08:28:18.079Z,0.10
2022-12-23T08:29:19.836Z,0.10
2022-12-23T08:30:21.689Z,0.20
2022-12-23T08:31:26.587Z,0.30
2022-12-23T08:32:28.756Z,0.20
2022-12-23T08:33:30.683Z,0.10
2022-12-23T08:34:32.783Z,0.20
2022-12-23T08:35:34.536Z,0.20
2022-12-23T08:36:36.981Z,0.30
2022-12-23T08:37:38.774Z,0.10
2022-12-23T08:38:40.660Z,0.20
2022-12-23T08:39:43.835Z,0.32
2022-12-23T08:40:45.596Z,0.17
2022-12-23T08:41:49.690Z,0.20
2022-12-23T08:42:51.505Z,0.10
2022-12-23T08:43:53.681Z,0.25
2022-12-23T08:44:55.435Z,0.20
2022-12-23T08:45:57.239Z,0.20
2022-12-23T08:46:59.061Z,0.17
2022-12-23T08:48:00.818Z,0.13
2022-12-23T08:49:03.759Z,0.30
2022-12-23T08:50:06.707Z,0.20
2022-12-23T08:51:11.582Z,0.10
2022-12-23T08:52:13.442Z,0.10
2022-12-23T08:53:15.251Z,0.10
2022-12-23T08:54:17.786Z,0.20
2022-12-23T08:55:19.609Z,0.10
2022-12-23T08:56:23.385Z,0.20
2022-12-23T08:57:25.156Z,0.10
2022-12-23T08:58:27.009Z,0.10
2022-12-23T08:59:28.876Z,0.10
2022-12-23T09:00:30.768Z,0.10
2022-12-23T09:01:34.828Z,0.10
2022-12-23T09:02:36.965Z,0.10
2022-12-23T09:03:39.752Z,0.10
2022-12-23T09:04:41.604Z,0.15
2022-12-23T09:05:43.359Z,0.10
2022-12-23T09:06:45.644Z,0.20
2022-12-23T09:07:47.417Z,0.10
2022-12-23T09:08:49.693Z,0.20
2022-12-23T09:09:51.440Z,0.20
2022-12-23T09:10:53.256Z,0.17
2022-12-23T09:11:55.127Z,0.20
2022-12-23T09:12:58.120Z,0.10
2022-12-23T09:14:01.302Z,0.10
2022-12-23T09:15:03.348Z,0.17
2022-12-23T09:16:05.857Z,0.20
2022-12-23T09:17:08.025Z,0.10
2022-12-23T09:18:11.688Z,0.20
2022-12-23T09:19:13.471Z,0.10
2022-12-23T09:20:15.277Z,0.10
2022-12-23T09:21:19.445Z,0.20
2022-12-23T09:22:21.232Z,0.20
2022-12-23T09:23:23.067Z,0.20
2022-12-23T09:24:24.820Z,0.22
2022-12-23T09:25:26.636Z,0.20
2022-12-23T09:26:30.815Z,0.10
2022-12-23T09:27:32.574Z,0.10
2022-12-23T09:28:34.746Z,0.10
2022-12-23T09:29:36.481Z,0.10
2022-12-23T09:30:38.296Z,0.10
2022-12-23T09:31:40.136Z,0.20
2022-12-23T09:32:41.927Z,0.30
2022-12-23T09:33:48.069Z,0.50
2022-12-23T09:34:49.875Z,0.52
2022-12-23T09:35:51.621Z,0.47
2022-12-23T09:36:55.390Z,0.50
2022-12-23T09:37:57.413Z,0.43
2022-12-23T09:38:59.301Z,0.60
2022-12-23T09:40:01.122Z,0.73
2022-12-23T09:41:55.613Z,0.57
2022-12-23T09:42:57.335Z,0.70
2022-12-23T09:44:13.849Z,0.70
2022-12-23T09:45:40.668Z,0.80
2022-12-23T09:46:49.336Z,0.57
2022-12-23T09:48:14.815Z,1.10
2022-12-23T09:49:18.802Z,0.60
2022-12-23T09:50:26.799Z,0.60
2022-12-23T09:51:30.601Z,0.80
2022-12-23T09:52:49.557Z,1.10
2022-12-23T09:54:12.006Z,0.40
2022-12-23T09:55:17.895Z,0.20
2022-12-23T09:56:47.182Z,0.43
2022-12-23T09:58:01.438Z,1.08
2022-12-23T09:59:23.189Z,1.40
2022-12-23T10:00:26.149Z,1.40
2022-12-23T10:01:44.570Z,0.50
2022-12-23T10:03:19.843Z,1.30
2022-12-23T10:04:21.741Z,0.80
2022-12-23T10:05:26.503Z,1.90
2022-12-23T10:06:30.484Z,1.60
2022-12-23T10:07:41.118Z,1.40
2022-12-23T10:08:46.661Z,1.30
2022-12-23T10:09:51.428Z,1.08
2022-12-23T10:11:20.369Z,0.85
2022-12-23T10:12:39.392Z,0.70
2022-12-23T10:13:46.782Z,1.17
2022-12-23T10:14:51.030Z,0.90
2022-12-23T10:15:56.126Z,1.60
2022-12-23T10:17:42.716Z,1.17
2022-12-23T10:18:53.376Z,1.52
2022-12-23T10:20:00.669Z,0.50
2022-12-23T10:21:17.895Z,1.52
2022-12-23T10:22:40.264Z,2.88
2022-12-23T10:23:47.488Z,0.70
2022-12-23T10:24:49.676Z,0.57
2022-12-23T10:25:52.576Z,0.20
2022-12-23T10:26:57.050Z,0.50
2022-12-23T10:27:58.792Z,0.40
2022-12-23T10:29:18.733Z,0.20
2022-12-23T10:32:17.705Z,0.28
2022-12-23T10:33:27.732Z,0.30
2022-12-23T10:34:43.116Z,0.80
2022-12-23T10:36:25.742Z,0.40
2022-12-23T10:37:42.753Z,0.40
2022-12-23T10:39:02.606Z,0.20
2022-12-23T10:40:33.035Z,0.40
2022-12-23T10:41:46.864Z,0.60
2022-12-23T10:43:09.714Z,0.40
2022-12-23T10:44:30.365Z,0.40
2022-12-23T10:46:10.200Z,0.40
2022-12-23T10:47:30.379Z,0.40
2022-12-23T10:49:00.432Z,0.90
2022-12-23T10:50:28.795Z,0.50
2022-12-23T10:51:53.586Z,0.80
2022-12-23T10:52:57.228Z,0.68
2022-12-23T10:54:33.227Z,1.00
2022-12-23T10:55:38.601Z,0.60
2022-12-23T10:56:40.560Z,0.60
2022-12-23T10:57:42.502Z,0.50
2022-12-23T10:58:48.804Z,0.47
2022-12-23T10:59:50.826Z,0.82
2022-12-23T11:00:55.799Z,0.40
2022-12-23T11:02:54.865Z,0.90
2022-12-23T11:04:18.368Z,0.60
2022-12-23T11:05:26.775Z,0.28
2022-12-23T11:06:36.626Z,0.50
2022-12-23T11:07:44.480Z,0.83
2022-12-23T11:08:47.272Z,1.92
2022-12-23T11:09:54.910Z,1.67
2022-12-23T11:10:59.014Z,1.15
2022-12-23T11:12:06.959Z,0.90
2022-12-23T11:13:08.765Z,0.70
2022-12-23T11:14:30.881Z,0.50
2022-12-23T11:15:37.825Z,0.60
2022-12-23T11:16:45.758Z,0.50
2022-12-23T11:17:58.729Z,0.47
2022-12-23T11:19:06.413Z,0.37
2022-12-23T11:20:11.245Z,0.40
2022-12-23T11:21:14.826Z,0.75
2022-12-23T11:22:25.340Z,0.55
2022-12-23T11:23:33.019Z,0.70
2022-12-23T11:24:41.270Z,0.30
2022-12-23T11:25:45.977Z,0.40
2022-12-23T11:26:51.207Z,0.50
2022-12-23T11:28:13.669Z,0.50
2022-12-23T11:29:31.734Z,0.38
2022-12-23T11:30:57.667Z,0.43
2022-12-23T11:32:01.231Z,0.63
2022-12-23T11:33:04.675Z,0.60
2022-12-23T11:34:15.779Z,0.40
2022-12-23T11:35:50.333Z,0.47
2022-12-23T11:37:07.147Z,0.40
2022-12-23T11:38:15.503Z,0.40
2022-12-23T11:39:30.042Z,0.40
2022-12-23T11:40:35.905Z,0.50
2022-12-23T11:41:43.182Z,0.40
2022-12-23T11:42:46.917Z,0.40
2022-12-23T11:44:03.772Z,0.40
2022-12-23T11:45:23.911Z,0.40
2022-12-23T11:46:30.187Z,0.43
2022-12-23T11:47:41.161Z,0.40
2022-12-23T11:48:43.311Z,0.40
2022-12-23T11:49:56.644Z,0.30
2022-12-23T11:51:03.783Z,0.50
2022-12-23T11:52:05.553Z,0.40
2022-12-23T11:53:28.440Z,0.45
2022-12-23T11:54:31.240Z,0.30
2022-12-23T11:55:33.146Z,0.43
2022-12-23T11:56:39.632Z,0.40
2022-12-23T11:57:48.370Z,0.60
2022-12-23T11:59:19.282Z,0.40
2022-12-23T12:00:23.636Z,0.38
2022-12-23T12:01:25.947Z,0.40
2022-12-23T12:02:35.606Z,0.55
2022-12-23T12:03:50.446Z,0.40
2022-12-23T12:05:00.790Z,0.45
2022-12-23T12:06:05.686Z,0.40
2022-12-23T12:07:11.992Z,0.38
2022-12-23T12:08:18.861Z,0.45
2022-12-23T12:09:21.705Z,0.32
2022-12-23T12:10:29.184Z,0.50
2022-12-23T12:11:44.254Z,0.30
2022-12-23T12:12:51.331Z,0.50
2022-12-23T12:14:00.223Z,0.40
2022-12-23T12:15:04.397Z,0.50
2022-12-23T12:16:16.966Z,0.32
2022-12-23T12:17:32.900Z,0.40
2022-12-23T12:18:35.405Z,0.40
2022-12-23T12:19:46.432Z,0.60
2022-12-23T12:20:58.990Z,0.40
2022-12-23T12:22:05.702Z,0.30
2022-12-23T12:23:17.274Z,0.30
2022-12-23T12:24:31.323Z,0.40
2022-12-23T12:25:42.649Z,0.30
2022-12-23T12:26:51.264Z,0.40
2022-12-23T12:28:02.790Z,0.40
2022-12-23T12:29:28.475Z,0.30
2022-12-23T12:30:37.208Z,0.40
2022-12-23T12:32:00.369Z,0.50
2022-12-23T12:33:17.208Z,0.50
2022-12-23T12:34:42.607Z,0.40
2022-12-23T12:35:56.753Z,0.30
2022-12-23T12:37:08.856Z,0.30
2022-12-23T12:38:24.781Z,0.40
2022-12-23T12:39:33.603Z,0.40
2022-12-23T12:41:02.851Z,0.30
2022-12-23T12:42:10.610Z,0.50
2022-12-23T12:43:37.915Z,0.30
2022-12-23T12:44:51.489Z,0.40
2022-12-23T12:46:31.029Z,0.47
2022-12-23T12:47:57.056Z,0.28
2022-12-23T12:49:10.839Z,0.70
2022-12-23T12:50:25.134Z,0.50
2022-12-23T12:51:46.744Z,0.35
2022-12-23T12:52:51.041Z,0.30
2022-12-23T12:54:02.754Z,0.35
2022-12-23T12:55:25.072Z,0.30
2022-12-23T12:56:49.671Z,0.50
2022-12-23T12:57:51.571Z,0.30
2022-12-23T12:58:54.249Z,0.40
2022-12-23T13:00:05.521Z,0.32
2022-12-23T13:01:45.696Z,0.40
2022-12-23T13:03:02.783Z,0.20
2022-12-23T13:04:19.142Z,0.38
2022-12-23T13:05:51.679Z,0.30
2022-12-23T13:06:58.212Z,0.25
2022-12-23T13:08:54.286Z,0.30
2022-12-23T13:10:29.653Z,0.50
2022-12-23T13:11:37.867Z,0.30
2022-12-23T13:13:02.465Z,0.40
2022-12-23T13:14:43.252Z,0.47
2022-12-23T13:15:53.686Z,0.50
2022-12-23T13:19:40.922Z,0.40
2022-12-23T13:20:54.383Z,0.40
2022-12-23T13:22:11.601Z,0.47
2022-12-23T13:23:42.971Z,0.40
2022-12-23T13:24:59.355Z,0.30
2022-12-23T13:26:11.499Z,0.30
2022-12-23T13:27:27.193Z,0.50
2022-12-23T13:28:46.786Z,0.35
2022-12-23T13:30:07.008Z,0.40
2022-12-23T13:31:23.097Z,0.43
2022-12-23T13:32:36.593Z,0.50
2022-12-23T13:33:59.722Z,0.40
2022-12-23T13:35:20.993Z,0.50
2022-12-23T13:36:45.437Z,0.30
2022-12-23T13:38:22.140Z,0.47
2022-12-23T13:39:47.690Z,0.57
2022-12-23T13:41:10.690Z,0.45
2022-12-23T13:42:30.932Z,0.40
2022-12-23T13:43:53.948Z,0.50
2022-12-23T13:44:57.665Z,0.30
2022-12-23T13:46:03.895Z,0.20
2022-12-23T13:47:18.781Z,0.30
2022-12-23T13:48:23.537Z,0.43
2022-12-23T13:49:40.717Z,0.50
2022-12-23T13:50:58.318Z,0.50
2022-12-23T13:52:31.381Z,0.65
2022-12-23T13:53:47.829Z,0.47
2022-12-23T13:55:01.760Z,0.55
2022-12-23T13:56:19.621Z,0.50
2022-12-23T13:57:43.857Z,0.43
2022-12-23T13:58:49.738Z,0.40
2022-12-23T14:00:18.889Z,0.40
2022-12-23T14:01:53.656Z,0.30
2022-12-23T14:03:00.050Z,0.37
2022-12-23T14:04:32.425Z,0.28
2022-12-23T14:05:34.201Z,0.28
2022-12-23T14:06:36.743Z,0.40
2022-12-23T14:07:38.613Z,0.40
2022-12-23T14:08:42.628Z,0.30
2022-12-23T14:09:54.361Z,0.30
2022-12-23T14:11:30.645Z,0.52
2022-12-23T14:12:38.046Z,0.30
2022-12-23T14:13:55.271Z,0.40
2022-12-23T14:15:31.402Z,0.63
2022-12-23T14:16:39.226Z,0.40
2022-12-23T14:18:12.797Z,0.40
2022-12-23T14:19:26.599Z,0.55
2022-12-23T14:20:53.163Z,0.55
2022-12-23T14:22:16.796Z,0.70
2022-12-23T14:23:30.580Z,0.70
2022-12-23T14:24:50.520Z,0.57
2022-12-23T14:26:00.808Z,0.35
2022-12-23T14:27:21.250Z,0.50
2022-12-23T14:28:43.271Z,0.70
2022-12-23T14:29:55.601Z,0.80
2022-12-23T14:30:59.365Z,0.82
2022-12-23T14:32:01.683Z,0.50
2022-12-23T14:33:26.603Z,0.57
2022-12-23T14:34:32.022Z,0.45
2022-12-23T14:35:42.039Z,0.63
2022-12-23T14:37:21.777Z,0.43
2022-12-23T14:38:29.094Z,0.80
2022-12-23T14:39:33.594Z,1.40
2022-12-23T14:40:38.030Z,0.70
2022-12-23T14:41:52.754Z,0.70
2022-12-23T14:43:23.476Z,0.70
2022-12-23T14:44:37.262Z,0.68
2022-12-23T14:45:43.344Z,0.65
2022-12-23T14:46:45.120Z,1.02
2022-12-23T14:47:46.925Z,0.57
2022-12-23T14:48:48.609Z,0.80
2022-12-23T14:49:50.432Z,0.70
2022-12-23T14:51:02.161Z,0.60
2022-12-23T14:52:38.046Z,0.50
2022-12-23T14:53:53.712Z,0.80
2022-12-23T14:55:28.390Z,0.50
2022-12-23T14:56:20.112Z,0.40
2022-12-23T14:57:26.418Z,0.75
2022-12-23T14:58:46.179Z,0.70
2022-12-23T15:00:09.810Z,0.80
2022-12-23T15:01:26.224Z,1.10
2022-12-23T15:02:36.226Z,0.90
2022-12-23T15:03:53.305Z,1.15
2022-12-23T15:05:00.023Z,0.93
2022-12-23T15:06:06.331Z,1.23
2022-12-23T15:07:38.768Z,1.30
2022-12-23T15:08:42.489Z,1.40
2022-12-23T15:09:58.691Z,1.10
2022-12-23T15:11:03.025Z,0.98
2022-12-23T15:12:18.924Z,1.25
2022-12-23T15:13:21.053Z,0.70
2022-12-23T15:14:35.710Z,1.02
2022-12-23T15:15:52.563Z,0.70
2022-12-23T15:16:58.099Z,0.60
2022-12-23T15:18:11.917Z,0.90
2022-12-23T15:19:18.818Z,1.00
2022-12-23T15:20:25.107Z,0.80